Time;durP1;ratioP1;P1;durP2;ratioP2;P2;SDS_P1;SDS_P2;PMS_P1;PMS_P2;Temp;Humidity;BMP_temperature;BMP_pressure;BME280_temperature;BME280_humidity;BME280_pressure;Samples;Min_cycle;Max_cycle;Signal;HPM_P1;HPM_P2
2021/08/10 00:00:07;;;;;;;8.00;3.50;;;;;;;16.43;100.00;96210.22;1040255;28;20628;-66
2021/08/10 00:00:37;;;;;;;5.68;3.30;;;;;;;16.43;100.00;96217.47;1044057;28;20110;-67
2021/08/10 00:01:08;;;;;;;6.83;3.23;;;;;;;16.40;100.00;96216.19;1044164;28;20032;-66
2021/08/10 00:01:38;;;;;;;8.97;3.37;;;;;;;16.40;100.00;96218.91;1044444;28;20024;-66
2021/08/10 00:02:09;;;;;;;6.90;3.17;;;;;;;16.38;100.00;96213.81;1045172;28;20033;-66
2021/08/10 00:02:39;;;;;;;7.53;3.20;;;;;;;16.34;100.00;96210.09;1045227;28;20013;-66
2021/08/10 00:03:10;;;;;;;9.47;3.23;;;;;;;16.34;100.00;96215.50;1045307;28;20505;-66
2021/08/10 00:03:40;;;;;;;8.37;3.33;;;;;;;16.36;100.00;96221.38;1044911;28;20021;-66
2021/08/10 00:04:10;;;;;;;5.40;3.10;;;;;;;16.34;100.00;96218.19;1045189;28;20032;-66
2021/08/10 00:04:41;;;;;;;5.90;2.90;;;;;;;16.34;100.00;96218.19;1045016;28;20017;-66
2021/08/10 00:05:11;;;;;;;7.07;3.30;;;;;;;16.32;100.00;96219.59;1045207;28;20024;-66
2021/08/10 00:05:48;;;;;;;5.87;3.20;;;;;;;16.33;100.00;96221.22;1045322;28;20447;-66
2021/08/10 00:06:18;;;;;;;7.30;2.90;;;;;;;16.33;100.00;96213.13;1045260;28;20036;-66
2021/08/10 00:06:49;;;;;;;5.60;3.03;;;;;;;16.33;100.00;96216.63;1045318;28;20346;-66
2021/08/10 00:07:19;;;;;;;5.50;2.63;;;;;;;16.34;100.00;96222.81;1045277;28;20029;-66
2021/08/10 00:07:49;;;;;;;10.53;3.33;;;;;;;16.31;100.00;96212.59;1045239;28;20057;-66
2021/08/10 00:08:20;;;;;;;5.07;3.23;;;;;;;16.31;100.00;96216.09;1045243;28;20036;-66
2021/08/10 00:08:51;;;;;;;6.70;3.47;;;;;;;16.30;100.00;96217.19;1045191;28;20056;-66
2021/08/10 00:09:21;;;;;;;8.10;3.53;;;;;;;16.31;100.00;96209.91;1045277;28;20109;-66
2021/08/10 00:09:52;;;;;;;6.43;3.00;;;;;;;16.30;100.00;96217.19;1045259;28;20470;-66
2021/08/10 00:10:22;;;;;;;6.97;3.20;;;;;;;16.31;100.00;96209.91;1045276;28;20025;-66
2021/08/10 00:10:53;;;;;;;13.77;3.57;;;;;;;16.29;100.00;96214.81;1045199;28;20017;-66
2021/08/10 00:11:24;;;;;;;7.18;3.22;;;;;;;16.27;100.00;96208.91;1045242;28;20056;-66
2021/08/10 00:11:57;;;;;;;6.00;3.10;;;;;;;16.27;100.00;96206.22;1045270;28;20458;-66
2021/08/10 00:12:28;;;;;;;7.25;2.95;;;;;;;16.27;100.00;96219.69;1044832;28;20029;-66
2021/08/10 00:12:58;;;;;;;8.50;3.40;;;;;;;16.30;100.00;96211.00;1040814;28;20017;-66
2021/08/10 00:13:28;;;;;;;4.83;2.77;;;;;;;16.32;100.00;96214.19;1042220;28;20029;-66
2021/08/10 00:13:59;;;;;;;8.40;3.43;;;;;;;16.30;100.00;96217.19;1042084;28;20025;-66
2021/08/10 00:14:29;;;;;;;8.77;3.40;;;;;;;16.29;100.00;96206.72;1046535;28;20032;-66
2021/08/10 00:15:00;;;;;;;7.67;3.13;;;;;;;16.27;100.00;96208.91;1046424;28;20021;-66
2021/08/10 00:15:30;;;;;;;7.10;3.17;;;;;;;16.24;100.00;96207.63;1046637;28;20033;-66
2021/08/10 00:16:01;;;;;;;6.33;3.60;;;;;;;16.23;100.00;96205.22;1046373;28;20017;-66
2021/08/10 00:16:31;;;;;;;8.90;3.27;;;;;;;16.24;100.00;96206.81;1044966;28;20036;-66
2021/08/10 00:17:02;;;;;;;6.83;3.43;;;;;;;16.25;100.00;96211.13;1045274;28;20390;-66
2021/08/10 00:17:32;;;;;;;7.93;3.20;;;;;;;16.18;100.00;96210.72;1040859;28;20494;-66
2021/08/10 00:18:03;;;;;;;8.27;3.20;;;;;;;16.19;100.00;96207.72;1040794;28;20060;-66
2021/08/10 00:18:33;;;;;;;6.13;3.10;;;;;;;16.19;100.00;96205.03;1040703;28;20438;-66
2021/08/10 00:19:04;;;;;;;5.57;3.20;;;;;;;16.21;100.00;96208.22;1040810;28;20029;-66
2021/08/10 00:19:34;;;;;;;6.60;3.60;;;;;;;16.20;100.00;96206.63;1045141;28;20630;-66
2021/08/10 00:20:05;;;;;;;13.03;3.93;;;;;;;16.22;100.00;96209.00;1045194;28;20470;-66
2021/08/10 00:20:36;;;;;;;7.03;3.75;;;;;;;16.20;100.00;96212.00;1045133;28;20020;-66
2021/08/10 00:21:06;;;;;;;6.57;3.47;;;;;;;16.21;100.00;96210.91;1045187;28;20021;-66
2021/08/10 00:21:36;;;;;;;7.13;3.30;;;;;;;16.21;100.00;96219.00;1045297;28;20025;-66
2021/08/10 00:22:07;;;;;;;7.53;3.37;;;;;;;16.22;100.00;96209.00;1045217;28;20021;-66
2021/08/10 00:22:37;;;;;;;9.47;3.60;;;;;;;16.19;100.00;96209.63;1045236;28;20028;-66
2021/08/10 00:23:08;;;;;;;5.97;3.50;;;;;;;16.19;100.00;96213.13;1046695;28;20032;-66
2021/08/10 00:23:38;;;;;;;6.40;3.43;;;;;;;16.18;100.00;96203.44;1046099;28;20128;-66
2021/08/10 00:24:09;;;;;;;7.20;3.33;;;;;;;16.17;100.00;96212.59;1045157;28;20017;-66
2021/08/10 00:24:39;;;;;;;8.43;3.40;;;;;;;16.17;100.00;96209.09;1045182;28;20024;-66
2021/08/10 00:25:11;;;;;;;6.83;3.50;;;;;;;16.16;100.00;96212.91;1045121;28;20416;-66
2021/08/10 00:25:41;;;;;;;8.60;3.35;;;;;;;16.17;100.00;96214.50;1045176;28;20040;-66
2021/08/10 00:26:13;;;;;;;8.50;3.63;;;;;;;16.16;100.00;96212.91;1045082;28;20079;-66
2021/08/10 00:26:43;;;;;;;8.57;3.30;;;;;;;16.16;100.00;96208.31;1045226;28;20013;-66
2021/08/10 00:27:15;;;;;;;6.17;3.20;;;;;;;16.16;100.00;96211.00;1045137;28;20452;-66
2021/08/10 00:27:45;;;;;;;5.38;3.00;;;;;;;16.17;100.00;96212.59;1045018;28;20101;-66
2021/08/10 00:28:16;;;;;;;5.63;3.33;;;;;;;16.19;100.00;96215.00;1044514;28;20036;-66
2021/08/10 00:28:46;;;;;;;10.03;3.73;;;;;;;16.17;100.00;96211.81;1045132;28;20013;-66
2021/08/10 00:29:16;;;;;;;8.77;3.37;;;;;;;16.15;100.00;96211.31;1045120;28;20025;-66
2021/08/10 00:29:47;;;;;;;5.77;3.57;;;;;;;16.15;100.00;96217.50;1045179;28;20409;-66
2021/08/10 00:30:17;;;;;;;6.30;3.27;;;;;;;16.17;100.00;96219.88;1045136;28;20383;-66
2021/08/10 00:30:48;;;;;;;4.97;3.03;;;;;;;16.17;100.00;96211.81;1045125;28;20458;-66
2021/08/10 00:31:18;;;;;;;7.10;3.57;;;;;;;16.15;100.00;96216.72;1045055;28;20374;-66
2021/08/10 00:31:49;;;;;;;10.23;3.87;;;;;;;16.14;100.00;96217.81;1045196;28;20017;-66
2021/08/10 00:32:19;;;;;;;6.87;3.17;;;;;;;16.11;100.00;96211.91;1045157;28;20021;-66
2021/08/10 00:32:49;;;;;;;7.83;3.47;;;;;;;16.09;100.00;96216.81;1044893;28;20312;-66
2021/08/10 00:33:20;;;;;;;7.47;3.13;;;;;;;16.08;100.00;96223.31;1040486;28;20497;-67
2021/08/10 00:33:50;;;;;;;7.50;3.37;;;;;;;16.09;100.00;96216.81;1040750;28;20017;-66
2021/08/10 00:34:21;;;;;;;7.80;3.40;;;;;;;16.09;100.00;96221.41;1040692;28;20022;-66
2021/08/10 00:34:53;;;;;;;6.27;3.20;;;;;;;16.05;100.00;96221.19;1044887;28;20017;-66
2021/08/10 00:35:24;;;;;;;8.05;3.35;;;;;;;16.07;100.00;96216.31;1045018;28;20025;-66
2021/08/10 00:35:54;;;;;;;8.43;3.60;;;;;;;16.09;100.00;96216.00;1045078;28;20116;-66
2021/08/10 00:36:25;;;;;;;6.23;3.13;;;;;;;16.06;100.00;96214.69;1045236;28;20021;-66
2021/08/10 00:36:55;;;;;;;6.77;4.10;;;;;;;16.06;100.00;96212.00;1045124;28;20021;-66
2021/08/10 00:37:25;;;;;;;6.20;3.47;;;;;;;16.06;100.00;96217.38;1045129;28;20374;-66
2021/08/10 00:37:56;;;;;;;9.93;3.50;;;;;;;16.05;100.00;96210.41;1045047;28;20009;-66
2021/08/10 00:38:26;;;;;;;7.27;3.70;;;;;;;16.06;100.00;96216.59;1045090;28;20021;-66
2021/08/10 00:38:57;;;;;;;6.37;3.50;;;;;;;16.03;100.00;96207.22;1045118;28;20037;-66
2021/08/10 00:39:27;;;;;;;7.17;3.57;;;;;;;16.03;100.00;96217.22;1045240;28;20021;-66
2021/08/10 00:39:57;;;;;;;7.53;3.57;;;;;;;16.02;100.00;96213.72;1045153;28;20036;-66
2021/08/10 00:40:28;;;;;;;7.83;3.90;;;;;;;15.98;100.00;96211.91;1045140;28;20014;-66
2021/08/10 00:40:59;;;;;;;6.83;3.87;;;;;;;15.98;100.00;96215.41;1044815;28;20040;-66
2021/08/10 00:41:30;;;;;;;9.20;4.33;;;;;;;15.96;100.00;96214.88;1040663;28;20025;-66
2021/08/10 00:42:01;;;;;;;7.20;3.53;;;;;;;15.98;100.00;96215.41;1040614;28;20021;-66
2021/08/10 00:42:32;;;;;;;6.80;3.30;;;;;;;15.97;100.00;96207.59;1040634;28;20025;-66
2021/08/10 00:43:02;;;;;;;7.40;3.60;;;;;;;15.95;100.00;96213.28;1040851;28;20067;-66
2021/08/10 00:43:37;;;;;;;8.53;3.90;;;;;;;15.95;100.00;96209.81;1044658;28;20032;-66
2021/08/10 00:44:08;;;;;;;8.25;3.85;;;;;;;15.95;100.00;96216.00;1044644;28;20512;-66
2021/08/10 00:44:38;;;;;;;7.43;3.57;;;;;;;15.99;100.00;96210.81;1044803;28;20031;-66
2021/08/10 00:45:09;;;;;;;7.03;3.43;;;;;;;15.98;100.00;96215.41;1044787;28;20020;-66
2021/08/10 00:45:40;;;;;;;7.07;3.50;;;;;;;15.98;100.00;96214.63;1044981;28;20109;-66
2021/08/10 00:46:11;;;;;;;6.40;3.30;;;;;;;15.98;100.00;96210.03;1045005;28;20032;-66
2021/08/10 00:46:41;;;;;;;6.75;3.70;;;;;;;15.99;100.00;96210.81;1045049;28;20111;-66
2021/08/10 00:47:12;;;;;;;5.53;3.13;;;;;;;15.95;100.00;96220.59;1045069;28;20029;-66
2021/08/10 00:47:42;;;;;;;7.97;3.53;;;;;;;15.97;100.00;96213.00;1044916;28;20028;-66
2021/08/10 00:48:16;;;;;;;6.43;3.43;;;;;;;15.97;100.00;96204.91;1045006;28;20059;-66
2021/08/10 00:48:46;;;;;;;8.07;3.90;;;;;;;15.94;100.00;96211.72;1044843;28;20535;-66
2021/08/10 00:49:17;;;;;;;8.17;3.57;;;;;;;15.97;100.00;96210.28;1044745;28;20086;-66
2021/08/10 00:49:47;;;;;;;7.43;3.53;;;;;;;15.93;100.00;96206.63;1044855;28;20075;-66
2021/08/10 00:50:17;;;;;;;7.13;4.07;;;;;;;15.92;100.00;96205.81;1044645;28;20025;-66
2021/08/10 00:50:48;;;;;;;8.27;4.10;;;;;;;15.93;100.00;96202.03;1044612;28;20029;-66
2021/08/10 00:51:18;;;;;;;7.10;3.50;;;;;;;15.91;100.00;96209.59;1044738;28;20029;-66
2021/08/10 00:51:49;;;;;;;8.57;3.30;;;;;;;15.88;100.00;96212.91;1044998;28;20033;-66
2021/08/10 00:52:19;;;;;;;8.57;3.63;;;;;;;15.86;100.00;96204.31;1044381;28;20835;-66
2021/08/10 00:52:50;;;;;;;8.33;3.87;;;;;;;15.81;100.00;96210.59;1044689;28;20025;-66
2021/08/10 00:53:20;;;;;;;8.57;3.80;;;;;;;15.80;100.00;96208.19;1044683;28;20024;-66
2021/08/10 00:53:50;;;;;;;7.73;4.03;;;;;;;15.79;100.00;96209.28;1040357;28;20037;-66
2021/08/10 00:54:21;;;;;;;9.97;3.93;;;;;;;15.73;100.00;96205.91;1040572;28;20034;-67
2021/08/10 00:54:51;;;;;;;7.47;3.80;;;;;;;15.71;100.00;96201.88;1040548;28;20018;-66
2021/08/10 00:55:22;;;;;;;7.93;4.10;;;;;;;15.67;100.00;96201.69;1040793;28;20041;-66
2021/08/10 00:55:53;;;;;;;7.93;3.90;;;;;;;15.59;100.00;96211.22;1043110;28;20084;-66
2021/08/10 00:56:23;;;;;;;8.90;3.73;;;;;;;15.54;100.00;96202.44;1040579;28;20406;-66
2021/08/10 00:56:53;;;;;;;5.30;3.40;;;;;;;15.58;100.00;96201.53;1036532;28;20760;-66
2021/08/10 00:57:24;;;;;;;9.37;3.80;;;;;;;15.60;100.00;96202.03;1036638;28;20497;-66
2021/08/10 00:57:54;;;;;;;9.27;4.93;;;;;;;15.60;100.00;96204.72;1040632;28;20407;-66
2021/08/10 00:58:25;;;;;;;6.33;3.90;;;;;;;15.59;100.00;96195.06;1040605;28;20033;-66
2021/08/10 00:58:55;;;;;;;7.00;3.80;;;;;;;15.62;100.00;96206.34;1044630;28;20103;-66
2021/08/10 00:59:26;;;;;;;7.30;3.93;;;;;;;15.62;100.00;96200.97;1044764;28;20079;-66
2021/08/10 00:59:56;;;;;;;11.23;3.90;;;;;;;15.60;100.00;96199.34;1044631;28;20047;-66
2021/08/10 01:00:27;;;;;;;8.23;3.67;;;;;;;15.59;100.00;96203.13;1044623;28;20024;-66
2021/08/10 01:00:57;;;;;;;7.83;3.47;;;;;;;15.60;100.00;96201.25;1044706;28;20077;-66
2021/08/10 01:01:28;;;;;;;8.30;4.07;;;;;;;15.58;100.00;96192.66;1044481;28;20149;-66
2021/08/10 01:01:58;;;;;;;8.53;3.80;;;;;;;15.59;100.00;96197.75;1044620;28;20571;-66
2021/08/10 01:02:29;;;;;;;7.00;3.60;;;;;;;15.63;100.00;96197.16;1044652;28;20481;-66
2021/08/10 01:02:59;;;;;;;11.77;4.53;;;;;;;15.65;100.00;96192.31;1044682;28;20063;-66
2021/08/10 01:03:30;;;;;;;9.23;3.83;;;;;;;15.64;100.00;96196.09;1044750;28;20036;-66
2021/08/10 01:04:00;;;;;;;7.07;4.13;;;;;;;15.63;100.00;96195.31;1044861;28;20032;-66
2021/08/10 01:04:30;;;;;;;8.57;3.80;;;;;;;15.64;100.00;96190.72;1044928;28;20013;-66
2021/08/10 01:05:02;;;;;;;6.60;4.27;;;;;;;15.66;100.00;96196.59;1044560;28;20032;-66
2021/08/10 01:05:32;;;;;;;9.05;4.15;;;;;;;15.68;100.00;96199.81;1044431;28;20418;-66
2021/08/10 01:06:06;;;;;;;7.87;3.63;;;;;;;15.68;100.00;96197.91;1040503;28;20127;-66
2021/08/10 01:07:06;;;;;;;13.07;3.90;;;;;;;15.67;100.00;96196.31;1040544;28;20017;-66
2021/08/10 01:07:45;;;;;;;6.80;3.90;;;;;;;15.66;100.00;96201.97;1041120;28;20045;-66
2021/08/10 01:08:38;;;;;;;4.97;3.28;;;;;;;15.69;100.00;96199.50;1040654;28;20053;-66
2021/08/10 01:09:10;;;;;;;6.00;3.78;;;;;;;15.69;100.00;96204.09;1036957;28;20395;-66
2021/08/10 01:10:15;;;;;;;8.23;3.58;;;;;;;15.70;100.00;96203.78;1040603;28;20037;-66
2021/08/10 01:11:27;;;;;;;6.82;4.15;;;;;;;15.68;100.00;96200.59;1040691;28;20045;-66
2021/08/10 01:12:04;;;;;;;6.30;3.63;;;;;;;15.67;100.00;96201.69;1042055;28;20083;-66
2021/08/10 01:12:59;;;;;;;6.43;3.90;;;;;;;15.70;100.00;96198.41;1044258;28;20039;-66
2021/08/10 01:13:34;;;;;;;6.82;3.80;;;;;;;15.66;100.00;96200.09;1040587;28;20033;-66
2021/08/10 01:14:07;;;;;;;6.88;3.63;;;;;;;15.67;100.00;96203.59;1036681;28;20471;-66
2021/08/10 01:15:06;;;;;;;7.75;3.75;;;;;;;15.68;100.00;96199.81;1040615;28;20092;-66
2021/08/10 01:16:03;;;;;;;11.57;3.80;;;;;;;15.61;100.00;96194.78;1035351;28;20072;-66
2021/08/10 01:16:43;;;;;;;9.32;3.90;;;;;;;15.60;100.00;96206.63;1036034;28;20026;-66
2021/08/10 01:17:24;;;;;;;11.55;3.60;;;;;;;15.63;100.00;96192.59;1033081;28;20545;-66
2021/08/10 01:18:13;;;;;;;6.55;3.67;;;;;;;15.60;100.00;96201.25;1036465;28;20117;-66
2021/08/10 01:18:55;;;;;;;9.20;3.80;;;;;;;15.56;100.00;96192.19;1040756;28;20061;-66
2021/08/10 01:19:44;;;;;;;8.13;3.80;;;;;;;15.55;100.00;96202.13;1044648;28;20079;-66
2021/08/10 01:20:35;;;;;;;7.28;3.47;;;;;;;15.53;100.00;96198.94;1044492;28;20036;-66
2021/08/10 01:21:23;;;;;;;5.78;3.55;;;;;;;15.47;100.00;96197.44;1044887;28;20025;-66
2021/08/10 01:21:54;;;;;;;15.23;4.22;;;;;;;15.48;100.00;96196.34;1044703;28;20406;-66
2021/08/10 01:22:25;;;;;;;8.20;3.93;;;;;;;15.50;100.00;96202.22;1036387;28;20033;-66
2021/08/10 01:22:55;;;;;;;6.20;3.50;;;;;;;15.49;100.00;96197.94;1028328;28;20262;-66
2021/08/10 01:23:26;;;;;;;5.87;3.63;;;;;;;15.47;100.00;96194.75;1028480;28;20380;-66
2021/08/10 01:24:01;;;;;;;7.60;4.00;;;;;;;15.41;100.00;96195.13;1028641;28;20039;-66
2021/08/10 01:24:38;;;;;;;7.13;3.92;;;;;;;15.43;100.00;96191.03;1026002;28;20023;-66
2021/08/10 01:25:27;;;;;;;7.15;3.70;;;;;;;15.43;100.00;96185.66;1025917;28;20401;-66
2021/08/10 01:26:00;;;;;;;7.20;3.97;;;;;;;15.39;100.00;96192.72;1032099;28;20049;-66
2021/08/10 01:26:51;;;;;;;7.15;3.60;;;;;;;15.36;100.00;96185.25;1040050;28;20025;-65
2021/08/10 01:27:41;;;;;;;9.18;3.92;;;;;;;15.36;100.00;96192.53;1040425;28;20030;-66
2021/08/10 01:28:30;;;;;;;6.92;3.60;;;;;;;15.34;100.00;96185.53;1036500;28;20457;-66
2021/08/10 01:29:04;;;;;;;9.15;4.13;;;;;;;15.37;100.00;96191.44;1037481;28;20025;-66
2021/08/10 01:30:02;;;;;;;8.85;4.10;;;;;;;15.36;100.00;96189.84;1036400;28;20372;-66
2021/08/10 01:30:38;;;;;;;6.18;3.70;;;;;;;15.35;100.00;96186.31;1044636;28;20052;-66
2021/08/10 01:31:19;;;;;;;5.78;3.75;;;;;;;15.36;100.00;96190.63;1044592;28;20410;-66
2021/08/10 01:31:49;;;;;;;6.22;3.70;;;;;;;15.35;100.00;96183.63;1044619;28;20110;-66
2021/08/10 01:32:19;;;;;;;6.40;3.70;;;;;;;15.35;100.00;96180.94;1040621;28;20516;-66
2021/08/10 01:32:50;;;;;;;6.77;4.10;;;;;;;15.34;100.00;96184.72;1037777;28;20009;-66
2021/08/10 01:33:21;;;;;;;8.07;3.90;;;;;;;15.34;100.00;96179.34;1036483;28;20018;-66
2021/08/10 01:33:54;;;;;;;8.03;3.93;;;;;;;15.37;100.00;96188.75;1032451;28;20045;-66
2021/08/10 01:34:29;;;;;;;8.20;3.80;;;;;;;15.36;100.00;96182.56;1037005;28;20022;-66
2021/08/10 01:34:59;;;;;;;7.53;4.15;;;;;;;15.36;100.00;96181.75;1036256;28;20529;-66
2021/08/10 01:35:30;;;;;;;6.20;3.40;;;;;;;15.35;100.00;96175.53;1036400;28;20021;-66
2021/08/10 01:36:01;;;;;;;6.28;3.83;;;;;;;15.35;100.00;96175.53;1037161;28;20030;-66
2021/08/10 01:36:32;;;;;;;11.60;4.43;;;;;;;15.33;100.00;96183.94;1041102;28;20049;-66
2021/08/10 01:37:05;;;;;;;7.15;4.40;;;;;;;15.29;100.00;96182.13;1044569;28;20498;-66
2021/08/10 01:37:35;;;;;;;8.95;4.38;;;;;;;15.29;100.00;96179.44;1039868;28;20036;-66
2021/08/10 01:38:05;;;;;;;6.90;3.93;;;;;;;15.32;100.00;96186.94;1036309;28;20424;-66
2021/08/10 01:38:37;;;;;;;9.70;4.10;;;;;;;15.33;100.00;96186.63;1032252;28;20432;-66
2021/08/10 01:39:07;;;;;;;8.35;4.35;;;;;;;15.36;100.00;96185.25;1040387;28;20022;-66
2021/08/10 01:39:38;;;;;;;4.90;3.33;;;;;;;15.36;100.00;96182.56;1036369;28;20029;-66
2021/08/10 01:40:09;;;;;;;8.07;3.77;;;;;;;15.37;100.00;96183.34;1032088;28;20021;-66
2021/08/10 01:40:40;;;;;;;7.18;3.90;;;;;;;15.32;100.00;96186.94;1032248;28;20029;-66
2021/08/10 01:41:12;;;;;;;11.57;4.00;;;;;;;15.33;100.00;96185.81;1028498;28;20042;-66
2021/08/10 01:41:42;;;;;;;7.43;4.22;;;;;;;15.34;100.00;96179.34;1024694;28;20027;-66
2021/08/10 01:42:13;;;;;;;7.03;3.83;;;;;;;15.29;100.00;96182.91;1024516;28;20030;-66
2021/08/10 01:42:43;;;;;;;6.27;3.60;;;;;;;15.31;100.00;96177.25;1024568;28;20085;-66
2021/08/10 01:43:13;;;;;;;8.67;4.10;;;;;;;15.32;100.00;96182.34;1028767;28;20054;-66
2021/08/10 01:43:44;;;;;;;5.80;3.43;;;;;;;15.33;100.00;96183.13;1036167;28;20199;-66
2021/08/10 01:44:15;;;;;;;7.03;3.87;;;;;;;15.34;100.00;96188.22;1032268;28;20077;-66
2021/08/10 01:44:45;;;;;;;9.53;3.73;;;;;;;15.38;100.00;96187.63;1032446;28;20085;-66
2021/08/10 01:45:16;;;;;;;6.23;3.93;;;;;;;15.37;100.00;96180.66;1028317;28;20030;-65
2021/08/10 01:45:47;;;;;;;9.03;4.27;;;;;;;15.36;100.00;96179.06;1028489;28;20019;-66
2021/08/10 01:46:17;;;;;;;7.90;4.40;;;;;;;15.34;100.00;96182.03;1034744;28;20026;-66
2021/08/10 01:46:48;;;;;;;7.83;3.93;;;;;;;15.34;100.00;96180.13;1032290;28;20014;-66
2021/08/10 01:47:18;;;;;;;9.03;4.17;;;;;;;15.35;100.00;96180.94;1032293;28;20026;-66
2021/08/10 01:47:49;;;;;;;7.50;3.50;;;;;;;15.36;100.00;96181.75;1032218;28;20014;-66
2021/08/10 01:48:19;;;;;;;7.47;3.87;;;;;;;15.33;100.00;96175.06;1024442;28;20019;-66
2021/08/10 01:48:50;;;;;;;12.20;4.17;;;;;;;15.29;100.00;96177.53;1024395;28;20023;-66
2021/08/10 01:49:23;;;;;;;6.47;4.20;;;;;;;15.28;100.00;96170.56;1030242;28;20026;-66
2021/08/10 01:49:54;;;;;;;8.15;3.78;;;;;;;15.31;100.00;96175.34;1028339;28;20516;-66
2021/08/10 01:50:24;;;;;;;6.13;4.00;;;;;;;15.30;100.00;96170.25;1028713;28;20030;-66
2021/08/10 01:50:55;;;;;;;8.00;3.90;;;;;;;15.26;100.00;96172.75;1028372;28;20014;-66
2021/08/10 01:51:28;;;;;;;6.20;3.77;;;;;;;15.29;100.00;96171.34;1028801;28;20030;-66
2021/08/10 01:51:58;;;;;;;5.78;3.58;;;;;;;15.26;100.00;96172.75;1036397;28;20021;-66
2021/08/10 01:52:29;;;;;;;10.40;3.70;;;;;;;15.27;100.00;96174.34;1033217;28;20491;-66
2021/08/10 01:52:59;;;;;;;9.83;3.90;;;;;;;15.28;100.00;96173.25;1040446;28;20021;-66
2021/08/10 01:53:30;;;;;;;7.33;3.77;;;;;;;15.26;100.00;96171.97;1040480;28;20022;-66
2021/08/10 01:54:02;;;;;;;7.27;3.80;;;;;;;15.25;100.00;96183.78;1040518;28;20358;-66
2021/08/10 01:54:32;;;;;;;5.97;3.85;;;;;;;15.24;100.00;96184.91;1036345;28;20065;-66
2021/08/10 01:55:03;;;;;;;5.47;3.63;;;;;;;15.20;100.00;96182.00;1032221;28;20022;-66
2021/08/10 01:55:34;;;;;;;8.87;3.83;;;;;;;15.21;100.00;96180.91;1024249;28;20019;-66
2021/08/10 01:56:04;;;;;;;8.23;3.95;;;;;;;15.23;100.00;96175.22;1032607;28;20463;-66
2021/08/10 01:56:35;;;;;;;8.47;3.70;;;;;;;15.21;100.00;96172.03;1032332;28;20026;-66
2021/08/10 01:57:05;;;;;;;8.33;4.10;;;;;;;15.20;100.00;96189.25;1032313;28;20042;-66
2021/08/10 01:57:36;;;;;;;12.13;4.20;;;;;;;15.17;100.00;96185.28;1032390;28;20018;-66
2021/08/10 01:58:06;;;;;;;6.90;3.70;;;;;;;15.21;100.00;96180.13;1032374;28;20015;-66
2021/08/10 01:58:37;;;;;;;7.90;4.10;;;;;;;15.21;100.00;96183.59;1032284;28;20022;-66
2021/08/10 01:59:07;;;;;;;9.47;3.57;;;;;;;15.17;100.00;96179.91;1032312;28;20094;-66
2021/08/10 01:59:38;;;;;;;5.07;3.40;;;;;;;15.16;100.00;96185.59;1032615;28;20107;-66
2021/08/10 02:00:09;;;;;;;6.37;3.63;;;;;;;15.16;100.00;96188.28;1032281;28;20098;-67
2021/08/10 02:00:39;;;;;;;7.67;3.80;;;;;;;15.17;100.00;96179.09;1032528;28;20023;-66
2021/08/10 02:01:10;;;;;;;5.90;3.50;;;;;;;15.18;100.00;96180.69;1032369;28;20368;-65
2021/08/10 02:01:40;;;;;;;10.73;3.83;;;;;;;15.22;100.00;96184.41;1036560;28;20029;-66
2021/08/10 02:02:11;;;;;;;10.60;3.83;;;;;;;15.23;100.00;96180.59;1040608;28;20054;-66
2021/08/10 02:02:44;;;;;;;8.63;3.50;;;;;;;15.23;100.00;96183.31;1036514;28;20041;-66
2021/08/10 02:03:14;;;;;;;8.57;3.97;;;;;;;15.21;100.00;96180.13;1036468;28;20055;-66
2021/08/10 02:03:45;;;;;;;9.60;3.87;;;;;;;15.22;100.00;96173.63;1032548;28;20423;-66
2021/08/10 02:04:17;;;;;;;6.43;4.30;;;;;;;15.23;100.00;96172.53;1033529;28;20022;-66
2021/08/10 02:04:48;;;;;;;5.57;3.67;;;;;;;15.22;100.00;96168.25;1038330;28;20030;-66
2021/08/10 02:05:20;;;;;;;6.28;3.60;;;;;;;15.23;100.00;96183.31;1038420;28;20042;-66
2021/08/10 02:05:50;;;;;;;5.32;3.85;;;;;;;15.24;100.00;96177.63;1042128;28;20048;-66
2021/08/10 02:06:21;;;;;;;6.00;3.10;;;;;;;15.22;100.00;96179.00;1034268;28;20054;-66
2021/08/10 02:06:51;;;;;;;7.57;3.43;;;;;;;15.23;100.00;96169.84;1034375;28;20365;-66
2021/08/10 02:07:22;;;;;;;4.90;3.20;;;;;;;15.24;100.00;96177.63;1033935;28;20104;-66
2021/08/10 02:07:53;;;;;;;10.77;3.87;;;;;;;15.19;100.00;96176.91;1030199;28;20023;-66
2021/08/10 02:08:23;;;;;;;5.87;3.50;;;;;;;15.20;100.00;96179.31;1035773;28;20053;-66
2021/08/10 02:08:53;;;;;;;8.30;3.83;;;;;;;15.25;100.00;96170.34;1034176;28;20049;-66
2021/08/10 02:09:24;;;;;;;5.93;3.47;;;;;;;15.25;100.00;96173.03;1038239;28;20018;-66
2021/08/10 02:09:54;;;;;;;10.00;3.80;;;;;;;15.24;100.00;96174.13;1042189;28;20033;-66
2021/08/10 02:10:25;;;;;;;5.83;3.43;;;;;;;15.27;100.00;96178.94;1034201;28;20025;-66
2021/08/10 02:10:55;;;;;;;7.77;3.67;;;;;;;15.25;100.00;96170.34;1033921;28;20025;-66
2021/08/10 02:11:26;;;;;;;6.00;3.80;;;;;;;15.28;100.00;96170.56;1033984;28;20086;-66
2021/08/10 02:11:57;;;;;;;5.93;3.57;;;;;;;15.29;100.00;96172.16;1030427;28;20023;-67
2021/08/10 02:12:28;;;;;;;11.57;3.83;;;;;;;15.28;100.00;96169.75;1039519;28;20534;-67
2021/08/10 02:12:58;;;;;;;8.02;3.97;;;;;;;15.27;100.00;96179.72;1039929;28;20026;-67
2021/08/10 02:13:29;;;;;;;9.73;3.87;;;;;;;15.28;100.00;96175.94;1039566;28;20041;-68
2021/08/10 02:13:59;;;;;;;5.50;3.33;;;;;;;15.26;100.00;96175.44;1043784;28;20036;-66
2021/08/10 02:14:30;;;;;;;7.03;3.50;;;;;;;15.25;100.00;96175.72;1039670;28;20085;-66
2021/08/10 02:15:01;;;;;;;6.10;3.97;;;;;;;15.25;100.00;96173.84;1039620;28;20033;-66
2021/08/10 02:15:31;;;;;;;6.77;3.83;;;;;;;15.25;100.00;96171.16;1039445;28;20029;-66
2021/08/10 02:16:02;;;;;;;9.40;4.27;;;;;;;15.25;100.00;96173.03;1035411;28;20407;-66
2021/08/10 02:16:32;;;;;;;9.73;3.93;;;;;;;15.25;100.00;96175.72;1038515;28;20049;-66
2021/08/10 02:17:04;;;;;;;6.13;3.80;;;;;;;15.22;100.00;96176.31;1034210;28;20029;-66
2021/08/10 02:17:35;;;;;;;6.70;3.83;;;;;;;15.22;100.00;96170.94;1034685;28;20072;-67
2021/08/10 02:18:05;;;;;;;8.17;3.87;;;;;;;15.23;100.00;96172.53;1040680;28;20029;-66
2021/08/10 02:18:36;;;;;;;6.80;3.50;;;;;;;15.20;100.00;96167.72;1040541;28;20025;-66
2021/08/10 02:19:07;;;;;;;8.20;4.20;;;;;;;15.18;100.00;96173.41;1044427;28;20029;-66
2021/08/10 02:19:37;;;;;;;5.93;3.45;;;;;;;15.14;100.00;96185.84;1044449;28;20021;-66
2021/08/10 02:20:11;;;;;;;7.80;3.50;;;;;;;15.17;100.00;96173.72;1044566;28;20452;-66
2021/08/10 02:20:42;;;;;;;8.73;4.15;;;;;;;15.13;100.00;96176.19;1040315;28;20029;-66
2021/08/10 02:21:22;;;;;;;10.75;3.83;;;;;;;15.10;100.00;96176.78;1033014;28;20030;-66
2021/08/10 02:21:52;;;;;;;9.13;3.78;;;;;;;15.01;100.00;96179.34;1032203;28;20037;-66
2021/08/10 02:22:23;;;;;;;6.13;4.03;;;;;;;15.02;100.00;96178.25;1029660;28;20384;-66
2021/08/10 02:22:53;;;;;;;8.77;3.73;;;;;;;15.05;100.00;96177.66;1033539;28;20022;-66
2021/08/10 02:23:25;;;;;;;6.77;3.93;;;;;;;15.07;100.00;96174.69;1031987;28;20030;-66
2021/08/10 02:24:00;;;;;;;7.88;3.97;;;;;;;15.05;100.00;96174.97;1028233;28;20065;-66
2021/08/10 02:24:51;;;;;;;6.18;3.78;;;;;;;15.01;100.00;96173.97;1035322;28;20030;-66
2021/08/10 02:25:22;;;;;;;7.13;3.80;;;;;;;15.03;100.00;96173.66;1033951;28;20022;-66
2021/08/10 02:25:53;;;;;;;5.77;3.67;;;;;;;15.04;100.00;96172.56;1033834;28;20069;-66
2021/08/10 02:26:24;;;;;;;5.40;3.93;;;;;;;15.04;100.00;96180.63;1030609;28;20011;-66
2021/08/10 02:26:56;;;;;;;6.77;4.03;;;;;;;15.06;100.00;96176.56;1033223;28;20023;-66
2021/08/10 02:27:38;;;;;;;7.05;3.80;;;;;;;15.06;100.00;96173.88;1030370;28;20036;-67
2021/08/10 02:28:08;;;;;;;9.75;3.80;;;;;;;14.99;100.00;96176.13;1035767;28;20030;-66
2021/08/10 02:28:39;;;;;;;7.70;3.63;;;;;;;14.96;100.00;96163.28;1039531;28;20018;-66
2021/08/10 02:29:10;;;;;;;9.07;3.87;;;;;;;14.98;100.00;96168.34;1042505;28;20029;-67
2021/08/10 02:29:44;;;;;;;10.00;3.83;;;;;;;14.97;100.00;96181.00;1038125;28;20014;-66
2021/08/10 02:30:16;;;;;;;9.88;3.95;;;;;;;14.93;100.00;96171.13;1038620;28;20097;-67
2021/08/10 02:30:53;;;;;;;9.10;3.90;;;;;;;14.94;100.00;96170.03;1035038;28;20061;-67
2021/08/10 02:31:25;;;;;;;7.22;4.40;;;;;;;14.96;100.00;96170.56;1041811;28;20029;-66